Time;durP1;ratioP1;P1;durP2;ratioP2;P2;SDS_P1;SDS_P2;PMS_P1;PMS_P2;Temp;Humidity;BMP_temperature;BMP_pressure;BME280_temperature;BME280_humidity;BME280_pressure;Samples;Min_cycle;Max_cycle;Signal;HPM_P1;HPM_P2
2022/06/16 00:00:48;;;;;;;7.15;3.20;;;;;;;;;;4856988;29;20049;-61
2022/06/16 00:03:14;;;;;;;7.53;3.20;;;;;;;;;;4858501;29;20048;-61
2022/06/16 00:05:44;;;;;;;5.55;3.15;;;;;;;;;;4858463;29;20426;-61
2022/06/16 00:08:13;;;;;;;8.75;3.33;;;;;;;;;;4857927;29;20038;-60
2022/06/16 00:11:16;;;;;;;5.47;3.13;;;;;;;;;;4859749;29;20112;-62
2022/06/16 00:13:31;;;;;;;8.50;3.50;;;;;;;;;;4861001;29;20048;-60
2022/06/16 00:15:57;;;;;;;5.82;3.10;;;;;;;;;;4862187;29;20108;-60
2022/06/16 00:18:23;;;;;;;5.20;2.95;;;;;;;;;;4859584;29;20038;-60
2022/06/16 00:20:48;;;;;;;7.28;3.30;;;;;;;;;;4859913;29;20037;-60
2022/06/16 00:23:14;;;;;;;6.18;3.22;;;;;;;;;;4860761;29;20382;-60
2022/06/16 00:25:39;;;;;;;6.82;3.20;;;;;;;;;;4862203;29;20053;-61
2022/06/16 00:28:04;;;;;;;6.22;3.17;;;;;;;;;;4859570;29;20112;-60
2022/06/16 00:30:30;;;;;;;6.53;3.10;;;;;;;;;;4862309;29;20038;-61
2022/06/16 00:32:55;;;;;;;5.68;3.40;;;;;;;;;;4859844;29;20121;-60
2022/06/16 00:35:21;;;;;;;6.32;3.10;;;;;;;;;;4860940;29;20068;-60
2022/06/16 00:37:46;;;;;;;8.73;3.60;;;;;;;;;;4862199;29;20126;-61
2022/06/16 00:40:12;;;;;;;5.38;2.90;;;;;;;;;;4860744;29;20030;-61
2022/06/16 00:42:38;;;;;;;5.13;3.00;;;;;;;;;;4861728;29;20390;-61
2022/06/16 00:45:42;;;;;;;5.47;3.15;;;;;;;;;;4860607;29;20041;-60
2022/06/16 00:48:43;;;;;;;7.32;3.17;;;;;;;;;;4860581;29;20114;-60
2022/06/16 00:51:18;;;;;;;10.70;3.50;;;;;;;;;;4854486;29;20617;-60
2022/06/16 00:53:45;;;;;;;5.65;3.17;;;;;;;;;;4860037;29;20044;-60
2022/06/16 00:56:16;;;;;;;6.97;3.30;;;;;;;;;;4861029;29;20037;-61
2022/06/16 00:58:45;;;;;;;6.60;3.40;;;;;;;;;;4861840;29;20041;-60
2022/06/16 01:01:13;;;;;;;6.07;3.25;;;;;;;;;;4860608;29;20061;-60
2022/06/16 01:06:29;;;;;;;6.45;3.13;;;;;;;;;;4859360;29;20406;-60
2022/06/16 01:08:57;;;;;;;;;;;;;;;;;;4860652;29;20457;-61
2022/06/16 01:14:46;;;;;;;10.00;2.95;;;;;;;;;;4860084;29;20049;-60
2022/06/16 01:17:29;;;;;;;7.68;3.28;;;;;;;;;;4860234;29;20041;-60
2022/06/16 01:20:13;;;;;;;5.72;3.30;;;;;;;;;;4842658;29;20487;-60
2022/06/16 01:23:22;;;;;;;6.30;3.22;;;;;;;;;;4847772;29;21314;-60
2022/06/16 01:26:00;;;;;;;4.65;3.10;;;;;;;;;;4859320;29;20041;-60
2022/06/16 01:28:33;;;;;;;4.63;3.15;;;;;;;;;;4860363;29;20029;-60
2022/06/16 01:31:06;;;;;;;5.18;3.25;;;;;;;;;;4860364;29;20041;-61
2022/06/16 01:33:46;;;;;;;8.70;3.17;;;;;;;;;;4861230;29;20116;-61
2022/06/16 01:36:23;;;;;;;4.95;2.88;;;;;;;;;;4860191;29;20037;-60
2022/06/16 01:38:53;;;;;;;7.22;2.83;;;;;;;;;;4843630;29;20041;-60
2022/06/16 01:41:25;;;;;;;4.83;2.90;;;;;;;;;;4859418;29;20112;-60
2022/06/16 01:44:01;;;;;;;5.35;2.85;;;;;;;;;;4856602;29;20052;-60
2022/06/16 01:46:31;;;;;;;6.32;3.22;;;;;;;;;;4860140;29;20033;-60
2022/06/16 01:49:09;;;;;;;6.00;3.10;;;;;;;;;;4857225;29;20156;-60
2022/06/16 01:51:41;;;;;;;9.35;3.30;;;;;;;;;;4842866;29;20092;-61
2022/06/16 01:54:12;;;;;;;7.25;3.20;;;;;;;;;;4856274;29;20041;-61
2022/06/16 01:56:58;;;;;;;6.95;3.40;;;;;;;;;;4861211;29;20032;-60
2022/06/16 01:59:33;;;;;;;5.38;3.00;;;;;;;;;;4860852;29;20030;-60
2022/06/16 02:02:07;;;;;;;6.22;3.15;;;;;;;;;;4858610;29;20486;-60
2022/06/16 02:04:37;;;;;;;6.55;3.40;;;;;;;;;;4842691;29;20050;-60
2022/06/16 02:07:08;;;;;;;4.00;2.83;;;;;;;;;;4848660;29;20561;-60
2022/06/16 02:09:42;;;;;;;6.60;3.28;;;;;;;;;;4858394;29;20073;-60
2022/06/16 02:12:55;;;;;;;7.45;3.40;;;;;;;;;;4860386;29;20037;-60
2022/06/16 02:15:02;;;;;;;4.95;2.95;;;;;;;;;;4859502;29;20033;-60
2022/06/16 02:17:28;;;;;;;8.05;3.65;;;;;;;;;;4860003;29;20041;-60
2022/06/16 02:19:54;;;;;;;5.47;3.00;;;;;;;;;;4859117;29;20501;-61
2022/06/16 02:22:19;;;;;;;6.25;3.20;;;;;;;;;;4859238;29;20029;-60
2022/06/16 02:24:45;;;;;;;4.95;3.03;;;;;;;;;;4856716;29;20101;-60
2022/06/16 02:27:10;;;;;;;5.45;3.10;;;;;;;;;;4858292;29;20041;-60
2022/06/16 02:29:39;;;;;;;6.10;3.33;;;;;;;;;;4860488;29;20037;-61
2022/06/16 02:32:37;;;;;;;8.73;3.13;;;;;;;;;;4858224;29;20394;-60
2022/06/16 02:35:05;;;;;;;5.57;3.00;;;;;;;;;;4859758;29;20064;-60
2022/06/16 02:37:38;;;;;;;7.88;3.00;;;;;;;;;;4848983;29;20042;-60
2022/06/16 02:40:18;;;;;;;5.90;2.88;;;;;;;;;;4859591;29;20041;-60
2022/06/16 02:42:50;;;;;;;7.40;2.80;;;;;;;;;;4856597;29;20644;-60
2022/06/16 02:45:43;;;;;;;5.35;3.55;;;;;;;;;;4859703;29;20617;-61
2022/06/16 02:48:26;;;;;;;7.43;3.05;;;;;;;;;;4858582;29;20136;-61
2022/06/16 02:51:03;;;;;;;4.90;2.78;;;;;;;;;;4843669;29;20216;-60
2022/06/16 02:53:56;;;;;;;6.50;2.90;;;;;;;;;;4859360;29;20029;-60
2022/06/16 02:56:33;;;;;;;7.30;2.70;;;;;;;;;;4858608;29;20044;-60
2022/06/16 02:59:03;;;;;;;7.88;2.85;;;;;;;;;;4858852;29;20530;-60
2022/06/16 03:01:32;;;;;;;4.55;2.80;;;;;;;;;;4859927;29;20060;-60
2022/06/16 03:04:09;;;;;;;6.60;2.70;;;;;;;;;;4859570;29;20045;-61
2022/06/16 03:06:34;;;;;;;6.00;2.67;;;;;;;;;;4858708;29;20447;-61
2022/06/16 03:09:00;;;;;;;5.43;2.83;;;;;;;;;;4858567;29;20124;-60
2022/06/16 03:11:26;;;;;;;6.57;2.60;;;;;;;;;;4855872;29;20482;-61
2022/06/16 03:13:51;;;;;;;4.68;2.60;;;;;;;;;;4859989;29;20097;-61
2022/06/16 03:16:17;;;;;;;7.20;2.90;;;;;;;;;;4857162;29;20029;-60
2022/06/16 03:18:42;;;;;;;6.20;2.88;;;;;;;;;;4857689;29;20029;-60
2022/06/16 03:21:08;;;;;;;6.30;2.80;;;;;;;;;;4859153;29;20072;-61
2022/06/16 03:23:34;;;;;;;3.63;2.50;;;;;;;;;;4858800;29;20097;-60
2022/06/16 03:26:00;;;;;;;5.25;2.70;;;;;;;;;;4859022;29;20049;-60
2022/06/16 03:28:26;;;;;;;4.35;2.45;;;;;;;;;;4863950;29;20064;-61
2022/06/16 03:30:52;;;;;;;5.30;2.60;;;;;;;;;;4856678;29;20045;-61
2022/06/16 03:33:18;;;;;;;5.20;2.63;;;;;;;;;;4857341;29;20539;-60
2022/06/16 03:35:44;;;;;;;4.82;2.75;;;;;;;;;;4859155;29;20037;-60
2022/06/16 03:41:14;;;;;;;4.10;2.50;;;;;;;;;;4819080;29;20066;-63
2022/06/16 03:43:40;;;;;;;7.63;2.85;;;;;;;;;;4850162;29;20052;-61
2022/06/16 03:46:06;;;;;;;5.72;2.72;;;;;;;;;;4851175;29;20033;-61
2022/06/16 03:48:32;;;;;;;5.55;2.60;;;;;;;;;;4855646;29;20065;-61
2022/06/16 03:50:57;;;;;;;6.47;2.58;;;;;;;;;;4858386;29;20029;-61
2022/06/16 03:53:23;;;;;;;5.38;2.58;;;;;;;;;;4858127;29;20042;-61
2022/06/16 03:55:48;;;;;;;4.85;2.70;;;;;;;;;;4858263;29;20064;-61
2022/06/16 03:58:14;;;;;;;5.10;2.60;;;;;;;;;;4856927;29;20041;-61
2022/06/16 04:00:40;;;;;;;3.65;2.53;;;;;;;;;;4858371;29;20093;-63
2022/06/16 04:05:50;;;;;;;5.70;2.70;;;;;;;;;;4858841;29;20110;-56
2022/06/16 04:08:16;;;;;;;4.95;2.50;;;;;;;;;;4858068;29;20053;-57
2022/06/16 04:10:43;;;;;;;5.80;2.60;;;;;;;;;;4858956;29;20037;-55
2022/06/16 04:13:09;;;;;;;4.82;2.80;;;;;;;;;;4857243;29;20455;-57
2022/06/16 04:15:34;;;;;;;4.53;3.00;;;;;;;;;;4854759;29;20451;-57
2022/06/16 04:17:59;;;;;;;5.40;2.55;;;;;;;;;;4858401;29;20038;-60
2022/06/16 04:20:25;;;;;;;5.28;2.50;;;;;;;;;;4859188;29;20069;-55
2022/06/16 04:22:51;;;;;;;5.68;2.60;;;;;;;;;;4859512;29;20453;-57
2022/06/16 04:25:18;;;;;;;5.85;2.70;;;;;;;;;;4856673;29;20501;-52
2022/06/16 04:27:45;;;;;;;7.20;2.63;;;;;;;;;;4859217;29;20037;-56
2022/06/16 04:30:12;;;;;;;4.22;2.45;;;;;;;;;;4857896;29;20037;-50
2022/06/16 04:32:37;;;;;;;7.43;2.53;;;;;;;;;;4858379;29;20033;-53
2022/06/16 04:35:03;;;;;;;3.75;2.17;;;;;;;;;;4857086;29;20458;-56
2022/06/16 04:37:29;;;;;;;4.13;2.45;;;;;;;;;;4858586;29;20045;-53
2022/06/16 04:39:54;;;;;;;6.95;2.80;;;;;;;;;;4859058;29;20097;-52
2022/06/16 04:42:26;;;;;;;5.03;2.60;;;;;;;;;;4857330;29;20049;-53
2022/06/16 04:44:51;;;;;;;4.88;2.55;;;;;;;;;;4859453;29;20497;-55
2022/06/16 04:47:17;;;;;;;5.53;2.70;;;;;;;;;;4857325;29;20034;-55
2022/06/16 04:49:48;;;;;;;5.97;2.65;;;;;;;;;;4856866;29;20048;-53
2022/06/16 04:52:17;;;;;;;8.05;2.65;;;;;;;;;;4854114;29;20089;-56
2022/06/16 04:54:47;;;;;;;4.93;2.60;;;;;;;;;;4858986;29;20120;-53
2022/06/16 04:57:16;;;;;;;7.57;2.80;;;;;;;;;;4864478;29;20033;-57
2022/06/16 04:59:42;;;;;;;5.60;2.67;;;;;;;;;;4844188;29;20124;-55
2022/06/16 05:02:08;;;;;;;5.53;2.75;;;;;;;;;;4860213;29;20054;-56
2022/06/16 05:04:35;;;;;;;5.90;2.97;;;;;;;;;;4862574;29;20474;-56
2022/06/16 05:07:01;;;;;;;5.50;2.90;;;;;;;;;;4859827;29;20542;-52
2022/06/16 05:09:27;;;;;;;7.13;2.70;;;;;;;;;;4861878;29;20037;-52
2022/06/16 05:11:52;;;;;;;4.43;2.60;;;;;;;;;;4860422;29;20394;-54
2022/06/16 05:14:18;;;;;;;5.93;2.70;;;;;;;;;;4860833;29;20075;-52
2022/06/16 05:16:43;;;;;;;6.13;2.60;;;;;;;;;;4843173;29;20037;-54
2022/06/16 05:19:09;;;;;;;5.13;2.45;;;;;;;;;;4859914;29;20038;-55
2022/06/16 05:21:34;;;;;;;5.00;2.70;;;;;;;;;;4860553;29;20030;-55
2022/06/16 05:24:00;;;;;;;7.47;3.40;;;;;;;;;;4861975;29;20117;-56
2022/06/16 05:26:26;;;;;;;6.65;3.10;;;;;;;;;;4860188;29;20052;-56
2022/06/16 05:28:51;;;;;;;6.28;3.00;;;;;;;;;;4861321;29;20524;-53
2022/06/16 05:31:17;;;;;;;7.80;3.00;;;;;;;;;;4861152;29;20081;-56
2022/06/16 05:33:42;;;;;;;4.90;2.72;;;;;;;;;;4861284;29;20086;-55
2022/06/16 05:36:11;;;;;;;6.53;2.92;;;;;;;;;;4859816;29;20045;-56
2022/06/16 05:38:36;;;;;;;6.45;2.92;;;;;;;;;;4860390;29;20439;-56
2022/06/16 05:41:13;;;;;;;7.55;3.25;;;;;;;;;;4859818;29;20033;-57
2022/06/16 05:43:39;;;;;;;6.82;3.00;;;;;;;;;;4860055;29;20037;-57
2022/06/16 05:46:05;;;;;;;5.22;2.97;;;;;;;;;;4861004;29;20033;-59
2022/06/16 05:48:32;;;;;;;6.55;2.63;;;;;;;;;;4859435;29;20073;-56
2022/06/16 05:51:03;;;;;;;8.13;3.22;;;;;;;;;;4860053;29;20522;-57
2022/06/16 05:53:28;;;;;;;5.97;3.00;;;;;;;;;;4858262;29;20097;-56
2022/06/16 05:55:54;;;;;;;6.38;2.83;;;;;;;;;;4859705;29;20029;-53
2022/06/16 05:58:19;;;;;;;7.05;2.80;;;;;;;;;;4859471;29;20089;-53
2022/06/16 06:00:45;;;;;;;7.32;2.70;;;;;;;;;;4861348;29;20053;-52
2022/06/16 06:03:10;;;;;;;6.15;2.83;;;;;;;;;;4859156;29;20463;-55
2022/06/16 06:05:36;;;;;;;7.30;2.92;;;;;;;;;;4860096;29;20125;-56
2022/06/16 06:16:25;;;;;;;6.40;2.53;;;;;;;;;;4858609;29;20084;-56
2022/06/16 06:18:55;;;;;;;4.20;2.50;;;;;;;;;;4861634;29;20116;-56
2022/06/16 06:21:58;;;;;;;6.85;3.03;;;;;;;;;;4855269;29;20041;-54
2022/06/16 06:24:06;;;;;;;5.57;2.50;;;;;;;;;;4860185;29;20045;-59
2022/06/16 06:26:32;;;;;;;5.57;2.42;;;;;;;;;;4859406;29;20398;-55
2022/06/16 06:28:58;;;;;;;5.00;2.38;;;;;;;;;;4859185;29;20130;-55
2022/06/16 06:31:23;;;;;;;4.68;2.20;;;;;;;;;;4859413;29;20112;-54
2022/06/16 06:33:49;;;;;;;5.00;2.50;;;;;;;;;;4858242;29;20041;-56
2022/06/16 06:36:14;;;;;;;6.70;2.00;;;;;;;;;;4859762;29;20376;-54
2022/06/16 06:38:40;;;;;;;4.82;2.20;;;;;;;;;;4860630;29;20534;-56
2022/06/16 06:41:06;;;;;;;5.65;2.70;;;;;;;;;;4859035;29;20049;-57
2022/06/16 06:43:31;;;;;;;6.65;2.22;;;;;;;;;;4860179;29;20039;-53
2022/06/16 06:45:57;;;;;;;4.25;2.00;;;;;;;;;;4860419;29;20041;-53
2022/06/16 06:48:22;;;;;;;3.25;1.80;;;;;;;;;;4857469;29;20085;-53
2022/06/16 06:50:47;;;;;;;2.95;1.80;;;;;;;;;;4859890;29;20037;-54
2022/06/16 06:53:14;;;;;;;6.22;2.25;;;;;;;;;;4859082;29;20094;-55
2022/06/16 06:55:42;;;;;;;5.25;1.90;;;;;;;;;;4862856;29;20037;-54
2022/06/16 06:58:08;;;;;;;3.95;1.95;;;;;;;;;;4845095;29;20034;-52
2022/06/16 07:00:33;;;;;;;4.20;1.77;;;;;;;;;;4854586;29;20044;-55
2022/06/16 07:02:59;;;;;;;5.25;1.90;;;;;;;;;;4849723;29;20094;-54
2022/06/16 07:05:24;;;;;;;4.70;1.70;;;;;;;;;;4859202;29;20033;-55
2022/06/16 07:07:50;;;;;;;4.50;1.80;;;;;;;;;;4859550;29;20041;-56
2022/06/16 07:10:17;;;;;;;4.15;1.73;;;;;;;;;;4856728;29;20037;-56
2022/06/16 07:12:42;;;;;;;3.47;1.60;;;;;;;;;;4860063;29;20071;-56
2022/06/16 07:15:08;;;;;;;3.85;1.80;;;;;;;;;;4859135;29;20038;-56
2022/06/16 07:17:34;;;;;;;5.40;1.90;;;;;;;;;;4857364;29;20045;-57
2022/06/16 07:19:59;;;;;;;5.15;1.85;;;;;;;;;;4855888;29;20041;-58
2022/06/16 07:22:25;;;;;;;4.45;1.58;;;;;;;;;;4857624;29;20072;-58
2022/06/16 07:24:51;;;;;;;3.50;1.60;;;;;;;;;;4860055;29;20133;-59
2022/06/16 07:27:18;;;;;;;2.78;1.58;;;;;;;;;;4857437;29;20037;-61
2022/06/16 07:29:44;;;;;;;3.72;1.52;;;;;;;;;;4855276;29;20040;-59
2022/06/16 07:32:09;;;;;;;4.60;1.80;;;;;;;;;;4857434;29;20034;-56
2022/06/16 07:34:35;;;;;;;4.53;2.00;;;;;;;;;;4858151;29;20033;-56
2022/06/16 07:37:01;;;;;;;3.90;1.60;;;;;;;;;;4859114;29;20538;-58
2022/06/16 07:39:26;;;;;;;4.88;1.67;;;;;;;;;;4847200;29;20042;-59
2022/06/16 07:41:52;;;;;;;2.78;1.52;;;;;;;;;;4858432;29;20044;-60
2022/06/16 07:44:17;;;;;;;4.80;1.73;;;;;;;;;;4858246;29;20042;-59
2022/06/16 07:46:44;;;;;;;3.92;1.70;;;;;;;;;;4859931;29;20030;-61
2022/06/16 07:49:13;;;;;;;3.28;1.58;;;;;;;;;;4858537;29;20485;-58
2022/06/16 07:51:42;;;;;;;5.25;1.65;;;;;;;;;;4858169;29;20039;-61
2022/06/16 07:54:10;;;;;;;4.63;1.50;;;;;;;;;;4859120;29;20068;-56
2022/06/16 07:56:36;;;;;;;2.95;1.50;;;;;;;;;;4858363;29;20455;-57
2022/06/16 07:59:02;;;;;;;4.18;1.58;;;;;;;;;;4874006;29;20085;-58
2022/06/16 08:01:27;;;;;;;4.40;1.60;;;;;;;;;;4858224;29;20049;-54
2022/06/16 08:03:53;;;;;;;4.85;1.75;;;;;;;;;;4858477;29;20044;-57
2022/06/16 08:06:23;;;;;;;2.53;1.42;;;;;;;;;;4858231;29;20474;-58
2022/06/16 08:08:48;;;;;;;3.63;1.60;;;;;;;;;;4858353;29;20049;-56
2022/06/16 08:13:59;;;;;;;3.45;1.40;;;;;;;;;;4857415;29;20051;-56
2022/06/16 08:16:25;;;;;;;2.60;1.30;;;;;;;;;;4858566;29;20112;-56
2022/06/16 08:18:50;;;;;;;4.35;1.50;;;;;;;;;;4857402;29;20128;-59
2022/06/16 08:21:16;;;;;;;3.00;1.38;;;;;;;;;;4856496;29;20068;-59
2022/06/16 08:23:41;;;;;;;4.47;1.52;;;;;;;;;;4858516;29;20045;-57
2022/06/16 08:26:07;;;;;;;3.95;1.73;;;;;;;;;;4858187;29;20030;-57
2022/06/16 08:28:33;;;;;;;2.08;1.20;;;;;;;;;;4856538;29;20030;-59
2022/06/16 08:31:01;;;;;;;3.03;1.50;;;;;;;;;;4858071;29;20037;-58
2022/06/16 08:33:27;;;;;;;5.07;1.42;;;;;;;;;;4861023;29;20037;-58
2022/06/16 08:35:53;;;;;;;2.90;1.30;;;;;;;;;;4861953;29;20037;-57
2022/06/16 08:38:18;;;;;;;3.42;1.40;;;;;;;;;;4860700;29;20037;-58
2022/06/16 08:40:46;;;;;;;3.05;1.27;;;;;;;;;;4860310;29;20162;-56
2022/06/16 08:43:27;;;;;;;2.90;1.30;;;;;;;;;;4863076;29;20182;-57
2022/06/16 08:45:59;;;;;;;2.47;1.30;;;;;;;;;;4861570;29;20120;-55
2022/06/16 08:48:46;;;;;;;4.50;1.38;;;;;;;;;;4860572;29;20371;-59
2022/06/16 08:51:42;;;;;;;1.65;1.10;;;;;;;;;;4861227;29;20037;-58
2022/06/16 08:54:55;;;;;;;4.60;1.35;;;;;;;;;;4859815;29;20037;-57
2022/06/16 08:57:38;;;;;;;2.85;1.30;;;;;;;;;;4853014;29;20170;-56
2022/06/16 09:00:16;;;;;;;2.50;1.20;;;;;;;;;;4861372;29;20033;-57
2022/06/16 09:02:52;;;;;;;1.90;1.23;;;;;;;;;;4858326;29;20049;-58
2022/06/16 09:06:02;;;;;;;2.60;1.00;;;;;;;;;;4859962;29;20033;-60
2022/06/16 09:08:50;;;;;;;2.90;1.10;;;;;;;;;;4820510;29;20043;-57
2022/06/16 09:11:19;;;;;;;2.05;1.10;;;;;;;;;;4858877;29;20045;-59
2022/06/16 09:13:57;;;;;;;3.47;1.20;;;;;;;;;;4860999;29;20029;-56
2022/06/16 09:16:32;;;;;;;2.63;1.13;;;;;;;;;;4860112;29;20025;-54
2022/06/16 09:19:13;;;;;;;1.67;1.10;;;;;;;;;;4862349;29;20091;-58
2022/06/16 09:22:02;;;;;;;1.75;1.17;;;;;;;;;;4858849;29;20033;-58
2022/06/16 09:24:33;;;;;;;1.83;1.00;;;;;;;;;;4851012;29;20543;-58
2022/06/16 09:27:06;;;;;;;1.95;1.20;;;;;;;;;;4864303;29;20093;-58
2022/06/16 09:29:41;;;;;;;1.60;1.10;;;;;;;;;;4868645;29;20041;-62
2022/06/16 09:32:15;;;;;;;2.22;1.20;;;;;;;;;;4858932;29;20394;-63
2022/06/16 09:34:51;;;;;;;3.05;1.30;;;;;;;;;;4860427;29;20279;-62
2022/06/16 09:37:31;;;;;;;2.05;1.10;;;;;;;;;;4862115;29;20029;-62
2022/06/16 09:40:10;;;;;;;2.10;1.00;;;;;;;;;;4861069;29;20044;-62
2022/06/16 09:42:42;;;;;;;1.85;1.20;;;;;;;;;;4860258;29;20128;-62
2022/06/16 09:45:27;;;;;;;2.83;1.10;;;;;;;;;;4862278;29;20097;-63
2022/06/16 09:48:06;;;;;;;1.60;1.10;;;;;;;;;;4862064;29;20041;-62
2022/06/16 09:51:12;;;;;;;2.17;1.23;;;;;;;;;;4859945;29;20116;-63
2022/06/16 09:53:50;;;;;;;3.05;1.30;;;;;;;;;;4860806;29;20140;-61
2022/06/16 09:56:38;;;;;;;1.98;1.27;;;;;;;;;;4861800;29;20041;-61
2022/06/16 09:59:18;;;;;;;1.92;1.23;;;;;;;;;;4860977;29;20044;-62
2022/06/16 10:01:48;;;;;;;1.40;1.30;;;;;;;;;;4861007;29;20117;-62
2022/06/16 10:04:14;;;;;;;2.70;1.50;;;;;;;;;;4861482;29;20090;-61
2022/06/16 10:07:07;;;;;;;2.15;1.40;;;;;;;;;;4860381;29;20042;-61
2022/06/16 10:09:59;;;;;;;2.53;1.45;;;;;;;;;;4859362;29;20039;-60
2022/06/16 10:12:45;;;;;;;4.20;1.50;;;;;;;;;;4845313;29;20124;-61
2022/06/16 10:15:38;;;;;;;2.42;1.30;;;;;;;;;;4861291;29;20154;-63
2022/06/16 10:18:05;;;;;;;4.03;1.40;;;;;;;;;;4861209;29;20112;-63
2022/06/16 10:20:31;;;;;;;2.85;1.75;;;;;;;;;;4859472;29;20047;-63
2022/06/16 10:23:04;;;;;;;2.13;1.50;;;;;;;;;;4860250;29;20037;-61
2022/06/16 10:25:35;;;;;;;3.33;1.33;;;;;;;;;;4854554;29;20056;-62
2022/06/16 10:28:19;;;;;;;5.43;1.60;;;;;;;;;;4842723;29;20045;-61
2022/06/16 10:30:45;;;;;;;7.38;1.60;;;;;;;;;;4858469;29;20048;-61
2022/06/16 10:33:11;;;;;;;3.10;1.50;;;;;;;;;;4859707;29;20386;-61
2022/06/16 10:35:37;;;;;;;2.42;1.40;;;;;;;;;;4857916;29;20037;-61
2022/06/16 10:38:03;;;;;;;2.60;1.27;;;;;;;;;;4859578;29;20038;-61
2022/06/16 10:40:37;;;;;;;2.25;1.40;;;;;;;;;;4858930;29;20045;-62
2022/06/16 10:43:11;;;;;;;2.13;1.30;;;;;;;;;;4859426;29;20038;-62
2022/06/16 10:45:38;;;;;;;1.75;1.35;;;;;;;;;;4858969;29;20034;-62
2022/06/16 10:48:18;;;;;;;2.67;1.63;;;;;;;;;;4859515;29;20033;-62
2022/06/16 10:50:48;;;;;;;1.77;1.40;;;;;;;;;;4859454;29;20029;-62
2022/06/16 10:53:34;;;;;;;3.75;1.60;;;;;;;;;;4859602;29;20029;-62
2022/06/16 10:56:06;;;;;;;1.98;1.40;;;;;;;;;;4860075;29;20037;-62
2022/06/16 10:58:43;;;;;;;4.07;1.45;;;;;;;;;;4859857;29;20120;-62
2022/06/16 11:01:29;;;;;;;2.78;1.58;;;;;;;;;;4858463;29;20049;-62
2022/06/16 11:04:11;;;;;;;2.13;1.70;;;;;;;;;;4842113;29;20038;-62
2022/06/16 11:06:49;;;;;;;4.05;1.80;;;;;;;;;;4858073;29;20044;-62
2022/06/16 11:09:20;;;;;;;3.53;1.83;;;;;;;;;;4859135;29;20052;-62
2022/06/16 11:11:58;;;;;;;2.90;1.73;;;;;;;;;;4859545;29;20056;-61
2022/06/16 11:14:46;;;;;;;3.30;1.73;;;;;;;;;;4859437;29;20037;-61
2022/06/16 11:17:30;;;;;;;3.63;1.80;;;;;;;;;;4860182;29;20049;-62
2022/06/16 11:20:22;;;;;;;5.95;1.98;;;;;;;;;;4857401;29;20041;-63
2022/06/16 11:22:50;;;;;;;3.28;1.60;;;;;;;;;;4858082;29;20033;-62
2022/06/16 11:25:34;;;;;;;4.60;1.80;;;;;;;;;;4859590;29;20052;-62
2022/06/16 11:28:12;;;;;;;3.47;1.67;;;;;;;;;;4859219;29;20041;-62
2022/06/16 11:30:59;;;;;;;3.97;1.63;;;;;;;;;;4854820;29;20064;-62
2022/06/16 11:36:32;;;;;;;3.65;1.83;;;;;;;;;;4858645;29;20101;-62
2022/06/16 11:39:03;;;;;;;3.15;1.80;;;;;;;;;;4859863;29;20444;-62
2022/06/16 11:41:32;;;;;;;3.80;1.60;;;;;;;;;;4855948;29;20055;-62
2022/06/16 11:44:08;;;;;;;3.30;1.80;;;;;;;;;;4860076;29;20495;-62
2022/06/16 11:46:36;;;;;;;3.15;1.63;;;;;;;;;;4857949;29;20482;-62
2022/06/16 11:49:44;;;;;;;4.07;1.77;;;;;;;;;;4858428;29;20047;-62
2022/06/16 11:52:39;;;;;;;2.80;1.67;;;;;;;;;;4860909;29;20436;-62
2022/06/16 11:55:33;;;;;;;2.80;1.55;;;;;;;;;;4839630;29;20071;-62
2022/06/16 11:58:37;;;;;;;4.20;1.65;;;;;;;;;;4843247;29;20225;-62
2022/06/16 12:01:16;;;;;;;3.63;1.70;;;;;;;;;;4859385;29;20060;-62
2022/06/16 12:03:41;;;;;;;3.70;1.80;;;;;;;;;;4856838;29;20045;-62
2022/06/16 12:06:17;;;;;;;3.67;1.70;;;;;;;;;;4858647;29;20093;-62
2022/06/16 12:08:48;;;;;;;5.85;2.10;;;;;;;;;;4857742;29;20044;-62
2022/06/16 12:11:46;;;;;;;5.25;1.90;;;;;;;;;;4847821;29;20045;-62
2022/06/16 12:15:01;;;;;;;4.13;2.40;;;;;;;;;;4851559;29;20049;-62
2022/06/16 12:17:45;;;;;;;2.20;1.73;;;;;;;;;;4849352;29;20486;-62
2022/06/16 12:20:10;;;;;;;4.15;1.92;;;;;;;;;;4858868;29;20561;-62
2022/06/16 12:23:01;;;;;;;4.03;1.90;;;;;;;;;;4858707;29;20117;-62
2022/06/16 12:25:32;;;;;;;3.15;1.60;;;;;;;;;;4858767;29;20069;-62
2022/06/16 12:28:28;;;;;;;4.78;1.98;;;;;;;;;;4846975;29;20110;-62
2022/06/16 12:31:14;;;;;;;3.75;1.80;;;;;;;;;;4844637;29;20091;-62
2022/06/16 12:34:05;;;;;;;2.67;1.75;;;;;;;;;;4857443;29;20033;-62
2022/06/16 12:36:42;;;;;;;5.07;3.78;;;;;;;;;;4858231;29;20033;-62
2022/06/16 12:39:15;;;;;;;3.97;2.50;;;;;;;;;;4854196;29;20487;-62
2022/06/16 12:41:45;;;;;;;4.20;2.50;;;;;;;;;;4850182;29;20048;-61
2022/06/16 12:44:16;;;;;;;4.40;2.00;;;;;;;;;;4859274;29;20064;-61
2022/06/16 12:46:51;;;;;;;5.53;1.85;;;;;;;;;;4857353;29;20153;-62
2022/06/16 12:49:23;;;;;;;3.13;1.92;;;;;;;;;;4858627;29;20037;-61
2022/06/16 12:51:57;;;;;;;4.57;2.17;;;;;;;;;;4856913;29;20104;-61
2022/06/16 12:54:31;;;;;;;3.20;1.95;;;;;;;;;;4856391;29;20041;-62
2022/06/16 12:57:09;;;;;;;3.63;1.77;;;;;;;;;;4855695;29;20026;-61
2022/06/16 12:59:43;;;;;;;4.05;1.90;;;;;;;;;;4856405;29;20060;-61
2022/06/16 13:02:16;;;;;;;4.20;1.95;;;;;;;;;;4840902;29;20098;-62
2022/06/16 13:04:42;;;;;;;3.42;2.10;;;;;;;;;;4851334;29;20041;-62
2022/06/16 13:07:14;;;;;;;4.28;2.10;;;;;;;;;;4845608;29;20037;-61
2022/06/16 13:09:41;;;;;;;3.92;2.03;;;;;;;;;;4856910;29;20042;-61
2022/06/16 13:12:24;;;;;;;5.30;1.98;;;;;;;;;;4857367;29;20069;-63
2022/06/16 13:15:06;;;;;;;3.88;2.00;;;;;;;;;;4858969;29;20121;-63
2022/06/16 13:17:37;;;;;;;3.08;2.00;;;;;;;;;;4857068;29;20056;-63
2022/06/16 13:20:12;;;;;;;5.07;2.13;;;;;;;;;;4853857;29;20372;-63
2022/06/16 13:22:54;;;;;;;3.70;2.03;;;;;;;;;;4858686;29;20033;-63
2022/06/16 13:25:38;;;;;;;3.00;1.70;;;;;;;;;;4860225;29;20064;-62
2022/06/16 13:28:05;;;;;;;3.33;2.20;;;;;;;;;;4843369;29;20456;-62
2022/06/16 13:30:32;;;;;;;3.85;1.80;;;;;;;;;;4861062;29;20125;-62
2022/06/16 13:33:17;;;;;;;2.40;1.88;;;;;;;;;;4861726;29;20040;-62
2022/06/16 13:35:50;;;;;;;6.28;2.15;;;;;;;;;;4861185;29;20045;-62
2022/06/16 13:38:16;;;;;;;3.00;2.00;;;;;;;;;;4874855;29;20113;-60
2022/06/16 13:40:43;;;;;;;4.28;2.10;;;;;;;;;;4861037;29;20124;-61
2022/06/16 13:43:15;;;;;;;5.13;1.95;;;;;;;;;;4859788;29;20069;-61
2022/06/16 13:45:59;;;;;;;3.72;2.10;;;;;;;;;;4842493;29;20057;-61
2022/06/16 13:48:31;;;;;;;3.88;1.83;;;;;;;;;;4849342;29;20117;-62
2022/06/16 13:50:58;;;;;;;2.78;1.80;;;;;;;;;;4859999;29;20041;-62
2022/06/16 13:53:47;;;;;;;4.07;2.20;;;;;;;;;;4855452;29;20089;-62
2022/06/16 13:56:22;;;;;;;3.25;1.80;;;;;;;;;;4843196;29;20061;-62
2022/06/16 13:58:50;;;;;;;4.03;2.10;;;;;;;;;;4851580;29;20057;-62
2022/06/16 14:01:29;;;;;;;3.40;2.00;;;;;;;;;;4861425;29;20077;-61
2022/06/16 14:04:27;;;;;;;4.35;2.00;;;;;;;;;;4858171;29;20104;-62
2022/06/16 14:07:08;;;;;;;4.30;1.90;;;;;;;;;;4834204;29;20400;-62
2022/06/16 14:09:48;;;;;;;5.13;2.03;;;;;;;;;;4859398;29;20049;-62
2022/06/16 14:12:19;;;;;;;3.60;2.00;;;;;;;;;;4860431;29;20029;-62
2022/06/16 14:14:48;;;;;;;6.85;2.10;;;;;;;;;;4860329;29;20033;-62
2022/06/16 14:18:02;;;;;;;3.80;1.90;;;;;;;;;;4871319;29;20029;-62
2022/06/16 14:20:32;;;;;;;2.65;1.73;;;;;;;;;;4807486;29;20050;-62
2022/06/16 14:23:02;;;;;;;3.13;1.75;;;;;;;;;;4804297;29;20513;-61
2022/06/16 14:25:35;;;;;;;5.75;1.92;;;;;;;;;;4802439;29;20050;-61
2022/06/16 14:28:04;;;;;;;3.13;1.90;;;;;;;;;;4803305;29;20050;-62
2022/06/16 14:30:38;;;;;;;3.83;1.80;;;;;;;;;;4803877;29;20042;-61
2022/06/16 14:33:13;;;;;;;5.80;1.90;;;;;;;;;;4803896;29;20623;-61
2022/06/16 14:35:46;;;;;;;3.92;1.90;;;;;;;;;;4816003;29;20045;-62
2022/06/16 14:38:16;;;;;;;6.38;1.83;;;;;;;;;;4822044;29;20552;-61
2022/06/16 14:40:45;;;;;;;8.35;2.00;;;;;;;;;;4811200;29;20038;-61
2022/06/16 14:43:26;;;;;;;3.97;1.90;;;;;;;;;;4803727;29;20055;-61
2022/06/16 14:46:06;;;;;;;4.47;1.90;;;;;;;;;;4813631;29;20038;-62
2022/06/16 14:48:37;;;;;;;3.63;2.08;;;;;;;;;;4821919;29;20094;-62
2022/06/16 14:51:25;;;;;;;3.45;1.90;;;;;;;;;;4838856;29;20046;-62
2022/06/16 14:54:06;;;;;;;4.80;1.75;;;;;;;;;;4858782;29;20125;-62
2022/06/16 14:56:41;;;;;;;3.03;1.80;;;;;;;;;;4859985;29;20074;-62
2022/06/16 14:59:14;;;;;;;3.70;1.90;;;;;;;;;;4859320;29;20037;-61
2022/06/16 15:01:41;;;;;;;5.72;1.85;;;;;;;;;;4857903;29;20435;-62
2022/06/16 15:04:11;;;;;;;4.28;1.83;;;;;;;;;;4860484;29;20499;-62
2022/06/16 15:06:42;;;;;;;4.28;2.15;;;;;;;;;;4858323;29;20066;-62
2022/06/16 15:09:11;;;;;;;3.35;2.00;;;;;;;;;;4858410;29;20033;-62
2022/06/16 15:11:40;;;;;;;5.78;2.00;;;;;;;;;;4857519;29;20419;-62
2022/06/16 15:14:09;;;;;;;4.05;1.95;;;;;;;;;;4859474;29;20030;-62
2022/06/16 15:19:24;;;;;;;6.05;1.58;;;;;;;;;;4837688;29;20089;-58
2022/06/16 15:21:51;;;;;;;4.90;1.95;;;;;;;;;;4855901;29;20061;-57
2022/06/16 15:24:17;;;;;;;4.22;2.05;;;;;;;;;;4859740;29;20041;-57
2022/06/16 15:26:42;;;;;;;3.97;1.85;;;;;;;;;;4856341;29;20093;-57
2022/06/16 15:29:13;;;;;;;3.47;1.98;;;;;;;;;;4859455;29;20041;-57
2022/06/16 15:31:56;;;;;;;3.28;1.83;;;;;;;;;;4859460;29;20045;-60
2022/06/16 15:37:10;;;;;;;5.13;1.95;;;;;;;;;;4854943;29;20124;-57
2022/06/16 15:39:38;;;;;;;5.07;1.98;;;;;;;;;;4855439;29;20475;-58
2022/06/16 15:42:08;;;;;;;3.60;1.83;;;;;;;;;;4859042;29;20030;-58
2022/06/16 15:44:41;;;;;;;3.22;1.85;;;;;;;;;;4858377;29;20045;-58
2022/06/16 15:47:14;;;;;;;6.43;1.83;;;;;;;;;;4857916;29;20048;-58